createdAt,value
2019-04-06T00:00:35.938Z,99.90
2019-04-06T00:04:40.934Z,99.90
2019-04-06T00:08:46.075Z,99.90
2019-04-06T00:12:51.070Z,99.90
2019-04-06T00:16:56.092Z,99.90
2019-04-06T00:21:01.089Z,99.90
2019-04-06T00:25:06.770Z,99.90
2019-04-06T00:29:11.825Z,99.90
2019-04-06T00:33:18.482Z,99.90
2019-04-06T00:37:23.516Z,99.90
2019-04-06T00:41:28.540Z,99.90
2019-04-06T00:45:34.637Z,99.90
2019-04-06T00:49:39.597Z,99.90
2019-04-06T00:53:44.614Z,99.90
2019-04-06T00:57:50.618Z,99.90
2019-04-06T01:01:55.661Z,99.90
2019-04-06T01:06:00.663Z,99.90
2019-04-06T01:10:06.800Z,99.90
2019-04-06T01:14:11.918Z,99.90
2019-04-06T01:18:16.930Z,99.90
2019-04-06T01:22:21.938Z,99.90
2019-04-06T01:26:26.949Z,99.90
2019-04-06T01:30:31.943Z,99.90
2019-04-06T01:34:37.022Z,99.90
2019-04-06T01:38:42.638Z,99.90
2019-04-06T01:42:47.645Z,99.90
2019-04-06T01:46:52.690Z,99.90
2019-04-06T01:50:57.677Z,99.90
2019-04-06T01:55:02.715Z,99.90
2019-04-06T01:59:07.796Z,99.90
2019-04-06T02:03:12.808Z,99.90
2019-04-06T02:07:17.810Z,99.90
2019-04-06T02:11:22.867Z,99.90
2019-04-06T02:15:27.809Z,99.90
2019-04-06T02:19:32.838Z,99.90
2019-04-06T02:23:37.883Z,99.90
2019-04-06T02:27:42.883Z,99.90
2019-04-06T02:32:05.683Z,99.90
2019-04-06T02:36:12.382Z,99.90
2019-04-06T02:40:24.585Z,99.90
2019-04-06T02:44:30.428Z,99.90
2019-04-06T02:48:35.474Z,99.90
2019-04-06T02:52:40.494Z,99.90
2019-04-06T02:56:47.764Z,99.90
2019-04-06T03:00:52.253Z,99.90
2019-04-06T03:04:57.259Z,99.90
2019-04-06T03:09:02.375Z,99.90
2019-04-06T03:13:07.600Z,99.90
2019-04-06T03:17:12.600Z,99.90
2019-04-06T03:21:17.587Z,99.90
2019-04-06T03:25:22.603Z,99.90
2019-04-06T03:29:27.674Z,99.90
2019-04-06T03:33:32.702Z,99.90
2019-04-06T03:37:37.718Z,99.90
2019-04-06T03:41:42.705Z,99.90
2019-04-06T03:45:47.710Z,99.90
2019-04-06T03:49:52.709Z,99.90
2019-04-06T03:53:57.742Z,99.90
2019-04-06T03:58:02.758Z,99.90
2019-04-06T04:02:07.638Z,99.90
2019-04-06T04:06:12.657Z,99.90
2019-04-06T04:10:32.936Z,99.90
2019-04-06T04:14:38.008Z,99.90
2019-04-06T04:18:43.026Z,99.90
2019-04-06T04:22:48.042Z,99.90
2019-04-06T04:26:53.022Z,99.90
2019-04-06T04:30:58.033Z,99.90
2019-04-06T04:35:03.038Z,99.90
2019-04-06T04:39:08.647Z,99.90
2019-04-06T04:43:13.654Z,99.90
2019-04-06T04:47:18.662Z,99.90
2019-04-06T04:51:23.655Z,99.90
2019-04-06T04:55:28.659Z,99.90
2019-04-06T04:59:33.706Z,99.90
2019-04-06T05:03:39.059Z,99.90
2019-04-06T05:07:44.082Z,99.90
2019-04-06T05:11:49.200Z,99.90
2019-04-06T05:16:12.051Z,99.90
2019-04-06T05:20:17.362Z,99.90
2019-04-06T05:24:22.685Z,99.90
2019-04-06T05:28:27.977Z,99.90
2019-04-06T05:32:33.338Z,99.90
2019-04-06T05:36:38.612Z,99.90
2019-04-06T05:40:43.925Z,95.50
2019-04-06T05:44:49.817Z,92.00
2019-04-06T05:48:55.158Z,85.90
2019-04-06T05:53:00.755Z,72.60
2019-04-06T05:57:06.204Z,63.20
2019-04-06T06:01:11.502Z,57.80
2019-04-06T06:05:16.800Z,53.00
2019-04-06T06:09:22.157Z,48.20
2019-04-06T06:13:27.433Z,45.20
2019-04-06T06:17:32.698Z,42.90
2019-04-06T06:21:37.998Z,40.30
2019-04-06T06:25:43.357Z,39.70
2019-04-06T06:29:48.774Z,38.00
2019-04-06T06:33:54.293Z,35.80
2019-04-06T06:38:01.580Z,34.00
2019-04-06T06:42:07.451Z,32.30
2019-04-06T06:46:13.045Z,32.70
2019-04-06T06:50:18.343Z,33.20
2019-04-06T06:54:23.692Z,33.50
2019-04-06T06:58:29.083Z,32.80
2019-04-06T07:02:34.395Z,31.50
2019-04-06T07:06:39.698Z,30.60
2019-04-06T07:10:45.032Z,29.70
2019-04-06T07:14:50.301Z,28.60
2019-04-06T07:18:56.231Z,28.30
2019-04-06T07:23:01.585Z,27.40
2019-04-06T07:27:07.547Z,26.60
2019-04-06T07:31:13.256Z,26.90
2019-04-06T07:35:20.587Z,26.70
2019-04-06T07:39:26.158Z,26.40
2019-04-06T07:43:31.423Z,26.20
2019-04-06T07:47:36.920Z,25.60
2019-04-06T07:51:42.218Z,25.00
2019-04-06T07:55:47.528Z,24.30
2019-04-06T07:59:52.884Z,24.30
2019-04-06T08:03:58.170Z,23.70
2019-04-06T08:08:03.438Z,23.30
2019-04-06T08:12:08.778Z,23.20
2019-04-06T08:16:14.185Z,22.60
2019-04-06T08:20:20.225Z,24.80
2019-04-06T08:24:25.501Z,25.10
2019-04-06T08:28:30.806Z,25.70
2019-04-06T08:32:36.177Z,26.50
2019-04-06T08:36:41.482Z,25.80
2019-04-06T08:40:47.155Z,25.90
2019-04-06T08:44:52.673Z,25.70
2019-04-06T08:48:57.928Z,26.30
2019-04-06T08:53:04.648Z,26.80
2019-04-06T08:57:10.136Z,25.40
2019-04-06T09:01:15.513Z,25.30
2019-04-06T09:05:20.793Z,26.50
2019-04-06T09:09:26.114Z,29.40
2019-04-06T09:13:31.381Z,27.70
2019-04-06T09:17:36.682Z,26.60
2019-04-06T09:21:42.266Z,26.50
2019-04-06T09:25:47.594Z,28.30
2019-04-06T09:29:53.074Z,29.00
2019-04-06T09:33:58.417Z,29.30
2019-04-06T09:38:04.166Z,29.30
2019-04-06T09:42:09.614Z,28.00
2019-04-06T09:46:25.853Z,28.10
2019-04-06T09:50:49.234Z,28.00
2019-04-06T09:55:01.985Z,28.20
2019-04-06T09:59:12.766Z,28.00
2019-04-06T10:03:21.055Z,28.40
2019-04-06T10:07:28.351Z,27.90
2019-04-06T10:11:44.230Z,27.90
2019-04-06T10:16:07.482Z,27.50
2019-04-06T10:20:26.526Z,28.60
2019-04-06T10:24:33.966Z,30.50
2019-04-06T10:28:49.924Z,29.10
2019-04-06T10:33:09.303Z,29.20
2019-04-06T10:37:18.888Z,28.30
2019-04-06T10:41:31.717Z,29.30
2019-04-06T10:45:47.605Z,27.90
2019-04-06T10:49:54.503Z,27.30
2019-04-06T10:54:10.090Z,28.40
2019-04-06T10:58:26.130Z,29.10
2019-04-06T11:02:49.372Z,28.70
2019-04-06T11:06:58.951Z,27.70
2019-04-06T11:11:21.818Z,26.20
2019-04-06T11:15:28.751Z,28.10
2019-04-06T11:19:53.844Z,28.40
2019-04-06T11:24:15.598Z,28.20
2019-04-06T11:28:22.525Z,27.70
2019-04-06T11:32:32.150Z,28.60
2019-04-06T11:36:40.155Z,29.90
2019-04-06T11:40:50.026Z,30.10
2019-04-06T11:45:02.478Z,31.10
2019-04-06T11:49:16.838Z,34.10
2019-04-06T11:53:26.769Z,35.00
2019-04-06T11:57:36.527Z,35.70
2019-04-06T12:06:23.584Z,39.40
2019-04-06T12:10:33.399Z,40.60
2019-04-06T12:14:40.336Z,39.10
2019-04-06T12:18:56.058Z,39.60
2019-04-06T12:23:15.504Z,40.10
2019-04-06T12:27:28.550Z,41.60
2019-04-06T12:31:44.726Z,42.30
2019-04-06T12:35:51.718Z,43.60
2019-04-06T12:39:58.782Z,43.10
2019-04-06T12:44:22.393Z,43.70
2019-04-06T12:48:47.405Z,44.40
2019-04-06T12:52:54.400Z,44.90
2019-04-06T12:57:07.010Z,44.80
2019-04-06T13:01:16.691Z,44.60
2019-04-06T13:05:40.307Z,45.40
2019-04-06T13:09:59.079Z,45.10
2019-04-06T13:14:06.142Z,45.70
2019-04-06T13:18:28.594Z,45.40
2019-04-06T13:22:52.483Z,45.70
2019-04-06T13:27:02.230Z,46.60
2019-04-06T13:31:14.878Z,45.40
2019-04-06T13:35:31.133Z,43.80
2019-04-06T13:39:38.350Z,43.50
2019-04-06T13:44:01.756Z,43.40
2019-04-06T13:48:08.923Z,42.90
2019-04-06T13:52:15.830Z,43.00
2019-04-06T13:56:35.051Z,42.60
2019-04-06T14:01:00.406Z,41.50
2019-04-06T14:05:23.351Z,41.60
2019-04-06T14:09:45.563Z,41.50
2019-04-06T14:13:52.571Z,40.80
2019-04-06T14:18:14.581Z,41.60
2019-04-06T14:22:21.721Z,42.20
2019-04-06T14:26:40.362Z,42.90
2019-04-06T14:30:50.054Z,43.10
2019-04-06T14:35:12.447Z,43.50
2019-04-06T14:39:23.964Z,43.20
2019-04-06T14:43:33.561Z,43.50
2019-04-06T14:48:00.124Z,43.40
2019-04-06T14:52:22.002Z,42.50
2019-04-06T14:56:32.292Z,42.00
2019-04-06T15:00:54.974Z,41.00
2019-04-06T15:05:21.008Z,42.20
2019-04-06T15:09:31.036Z,44.10
2019-04-06T15:13:54.316Z,45.10
2019-04-06T15:18:01.404Z,44.50
2019-04-06T15:22:20.685Z,45.10
2019-04-06T15:26:27.589Z,45.60
2019-04-06T15:30:37.555Z,46.10
2019-04-06T15:34:50.892Z,46.60
2019-04-06T15:38:57.897Z,47.20
2019-04-06T15:43:20.110Z,48.10
2019-04-06T15:47:36.409Z,48.70
2019-04-06T15:51:43.808Z,49.60
2019-04-06T15:55:56.569Z,50.00
2019-04-06T16:00:03.550Z,50.50
2019-04-06T16:04:27.754Z,50.90
2019-04-06T16:08:38.114Z,51.60
2019-04-06T16:12:45.102Z,53.00
2019-04-06T16:17:08.681Z,53.50
2019-04-06T16:21:21.952Z,54.10
2019-04-06T16:25:47.428Z,54.50
2019-04-06T16:29:54.805Z,55.10
2019-04-06T16:34:02.114Z,55.60
2019-04-06T16:38:15.509Z,56.20
2019-04-06T16:42:40.255Z,57.10
2019-04-06T16:46:47.185Z,57.60
2019-04-06T16:50:54.122Z,58.30
2019-04-06T16:55:18.733Z,58.80
2019-04-06T16:59:28.717Z,59.30
2019-04-06T17:03:42.000Z,60.00
2019-04-06T17:07:54.949Z,60.20
2019-04-06T17:12:17.096Z,60.80
2019-04-06T17:16:24.027Z,62.00
2019-04-06T17:20:30.959Z,63.00
2019-04-06T17:24:57.179Z,63.80
2019-04-06T17:29:19.745Z,65.00
2019-04-06T17:33:27.098Z,66.40
2019-04-06T17:37:35.922Z,67.50
2019-04-06T17:41:59.482Z,68.70
2019-04-06T17:46:13.014Z,69.90
2019-04-06T17:50:29.496Z,71.10
2019-04-06T17:54:54.713Z,72.70
2019-04-06T17:59:01.909Z,74.40
2019-04-06T18:03:28.502Z,75.30
2019-04-06T18:07:35.464Z,76.90
2019-04-06T18:11:46.086Z,78.60
2019-04-06T18:15:51.867Z,80.20
2019-04-06T18:19:57.517Z,81.70
2019-04-06T18:24:03.549Z,82.90
2019-04-06T18:28:08.887Z,83.50
2019-04-06T18:32:16.162Z,84.20
2019-04-06T18:36:23.245Z,84.80
2019-04-06T18:40:28.686Z,85.10
2019-04-06T18:44:33.985Z,85.00
2019-04-06T18:48:39.449Z,85.60
2019-04-06T18:52:45.644Z,86.20
2019-04-06T18:56:51.286Z,86.50
2019-04-06T19:00:57.348Z,86.90
2019-04-06T19:05:02.794Z,86.70
2019-04-06T19:09:20.521Z,86.90
2019-04-06T19:13:16.494Z,87.20
2019-04-06T19:17:21.857Z,87.80
2019-04-06T19:21:27.443Z,87.80
2019-04-06T19:25:32.838Z,88.20
2019-04-06T19:29:38.321Z,88.30
2019-04-06T19:33:44.093Z,88.80
2019-04-06T19:37:49.534Z,89.10
2019-04-06T19:41:55.102Z,89.60
2019-04-06T19:46:00.404Z,90.00
2019-04-06T19:50:07.660Z,90.10
2019-04-06T19:54:13.041Z,90.30
2019-04-06T19:58:18.851Z,90.30
2019-04-06T20:02:24.232Z,90.50
2019-04-06T20:06:29.583Z,90.70
2019-04-06T20:10:35.066Z,90.80
2019-04-06T20:14:40.749Z,90.80
2019-04-06T20:18:46.050Z,90.70
2019-04-06T20:22:51.575Z,90.80
2019-04-06T20:26:57.002Z,91.10
2019-04-06T20:31:02.510Z,91.20
2019-04-06T20:35:09.259Z,91.20
2019-04-06T20:39:15.179Z,91.50
2019-04-06T20:43:20.786Z,91.70
2019-04-06T20:47:26.728Z,91.90
2019-04-06T20:51:31.992Z,92.10
2019-04-06T20:55:37.303Z,92.70
2019-04-06T20:59:42.590Z,92.60
2019-04-06T21:03:59.278Z,92.70
2019-04-06T21:07:55.419Z,92.80
2019-04-06T21:12:01.251Z,92.90
2019-04-06T21:16:07.723Z,93.00
2019-04-06T21:20:15.266Z,93.30
2019-04-06T21:24:21.020Z,93.50
2019-04-06T21:28:26.339Z,93.80
2019-04-06T21:32:32.529Z,94.00
2019-04-06T21:36:38.025Z,94.00
2019-04-06T21:40:43.388Z,94.10
2019-04-06T21:44:49.156Z,94.10
2019-04-06T21:48:54.469Z,94.10
2019-04-06T21:52:59.773Z,94.20
2019-04-06T21:57:05.110Z,94.30
2019-04-06T22:01:14.638Z,94.60
2019-04-06T22:05:21.579Z,95.40
2019-04-06T22:09:27.144Z,95.60
2019-04-06T22:13:32.742Z,95.60
2019-04-06T22:17:38.235Z,96.00
2019-04-06T22:21:44.000Z,96.30
2019-04-06T22:25:49.416Z,96.50
2019-04-06T22:29:54.770Z,96.90
2019-04-06T22:34:00.405Z,97.00
2019-04-06T22:38:05.845Z,97.30
2019-04-06T22:42:11.168Z,97.70
2019-04-06T22:46:17.061Z,97.90
2019-04-06T22:50:22.337Z,98.10
2019-04-06T22:54:27.734Z,98.10
2019-04-06T22:58:33.394Z,98.20
2019-04-06T23:02:43.094Z,98.30
2019-04-06T23:07:02.031Z,98.60
2019-04-06T23:11:08.001Z,98.80
2019-04-06T23:15:15.261Z,99.40
2019-04-06T23:19:20.574Z,99.40
2019-04-06T23:23:25.879Z,99.60
2019-04-06T23:27:31.782Z,99.70
2019-04-06T23:31:37.153Z,99.80
2019-04-06T23:35:42.400Z,99.90
2019-04-06T23:39:48.186Z,99.90
2019-04-06T23:43:53.471Z,99.90
2019-04-06T23:47:59.353Z,99.90
2019-04-06T23:52:04.634Z,99.90
2019-04-06T23:56:10.127Z,99.90
